sensor_id;sensor_type;location;lat;lon;timestamp;P1;durP1;ratioP1;P2;durP2;ratioP2
32874;SDS011;40468;42.128;24.750;2022-12-29T00:00:20;21.27;;;10.35;;
32874;SDS011;40468;42.128;24.750;2022-12-29T00:01:52;29.05;;;11.32;;
32874;SDS011;40468;42.128;24.750;2022-12-29T00:03:24;18.40;;;9.80;;
32874;SDS011;40468;42.128;24.750;2022-12-29T00:04:56;23.13;;;10.45;;
32874;SDS011;40468;42.128;24.750;2022-12-29T00:06:28;18.67;;;10.15;;
32874;SDS011;40468;42.128;24.750;2022-12-29T00:07:59;26.35;;;10.73;;
32874;SDS011;40468;42.128;24.750;2022-12-29T00:09:30;19.67;;;9.90;;
32874;SDS011;40468;42.128;24.750;2022-12-29T00:11:03;17.52;;;9.43;;
32874;SDS011;40468;42.128;24.750;2022-12-29T00:12:35;16.70;;;9.80;;
32874;SDS011;40468;42.128;24.750;2022-12-29T00:14:23;20.33;;;10.05;;
32874;SDS011;40468;42.128;24.750;2022-12-29T00:16:12;14.65;;;8.60;;
32874;SDS011;40468;42.128;24.750;2022-12-29T00:17:44;17.15;;;9.77;;
32874;SDS011;40468;42.128;24.750;2022-12-29T00:19:17;18.33;;;9.40;;
32874;SDS011;40468;42.128;24.750;2022-12-29T00:21:07;20.77;;;10.10;;
32874;SDS011;40468;42.128;24.750;2022-12-29T00:22:59;18.35;;;8.82;;
32874;SDS011;40468;42.128;24.750;2022-12-29T00:24:48;20.58;;;9.45;;
32874;SDS011;40468;42.128;24.750;2022-12-29T00:26:37;18.30;;;9.27;;
32874;SDS011;40468;42.128;24.750;2022-12-29T00:28:38;24.17;;;8.80;;
32874;SDS011;40468;42.128;24.750;2022-12-29T00:30:27;19.83;;;9.52;;
32874;SDS011;40468;42.128;24.750;2022-12-29T00:32:16;16.80;;;9.13;;
32874;SDS011;40468;42.128;24.750;2022-12-29T00:34:07;21.65;;;11.00;;
32874;SDS011;40468;42.128;24.750;2022-12-29T00:36:00;20.58;;;11.00;;
32874;SDS011;40468;42.128;24.750;2022-12-29T00:37:35;21.58;;;10.82;;
32874;SDS011;40468;42.128;24.750;2022-12-29T00:39:26;21.50;;;10.43;;
32874;SDS011;40468;42.128;24.750;2022-12-29T00:41:15;20.42;;;9.82;;
32874;SDS011;40468;42.128;24.750;2022-12-29T00:43:04;19.42;;;10.63;;
32874;SDS011;40468;42.128;24.750;2022-12-29T00:44:54;22.98;;;9.88;;
32874;SDS011;40468;42.128;24.750;2022-12-29T00:46:26;22.58;;;10.90;;
32874;SDS011;40468;42.128;24.750;2022-12-29T00:47:58;22.77;;;10.35;;
32874;SDS011;40468;42.128;24.750;2022-12-29T00:49:30;21.27;;;10.30;;
32874;SDS011;40468;42.128;24.750;2022-12-29T00:51:02;18.80;;;10.38;;
32874;SDS011;40468;42.128;24.750;2022-12-29T00:52:33;23.88;;;11.30;;
32874;SDS011;40468;42.128;24.750;2022-12-29T00:54:05;24.88;;;10.95;;
32874;SDS011;40468;42.128;24.750;2022-12-29T00:55:36;29.17;;;11.02;;
32874;SDS011;40468;42.128;24.750;2022-12-29T00:57:09;33.15;;;11.30;;
32874;SDS011;40468;42.128;24.750;2022-12-29T00:58:42;22.00;;;10.65;;
32874;SDS011;40468;42.128;24.750;2022-12-29T01:00:14;22.30;;;10.68;;
32874;SDS011;40468;42.128;24.750;2022-12-29T01:01:46;25.48;;;11.48;;
32874;SDS011;40468;42.128;24.750;2022-12-29T01:03:19;24.55;;;11.43;;
32874;SDS011;40468;42.128;24.750;2022-12-29T01:04:50;24.85;;;11.48;;
32874;SDS011;40468;42.128;24.750;2022-12-29T01:06:24;22.83;;;11.30;;
32874;SDS011;40468;42.128;24.750;2022-12-29T01:07:54;19.38;;;9.68;;
32874;SDS011;40468;42.128;24.750;2022-12-29T01:09:26;29.17;;;11.82;;
32874;SDS011;40468;42.128;24.750;2022-12-29T01:11:15;24.55;;;10.85;;
32874;SDS011;40468;42.128;24.750;2022-12-29T01:12:46;27.98;;;12.05;;
32874;SDS011;40468;42.128;24.750;2022-12-29T01:14:19;25.10;;;11.63;;
32874;SDS011;40468;42.128;24.750;2022-12-29T01:15:52;28.25;;;11.55;;
32874;SDS011;40468;42.128;24.750;2022-12-29T01:17:24;28.48;;;12.82;;
32874;SDS011;40468;42.128;24.750;2022-12-29T01:18:56;29.60;;;12.70;;
32874;SDS011;40468;42.128;24.750;2022-12-29T01:20:27;28.42;;;13.00;;
32874;SDS011;40468;42.128;24.750;2022-12-29T01:22:00;25.60;;;11.82;;
32874;SDS011;40468;42.128;24.750;2022-12-29T01:23:32;25.50;;;12.73;;
32874;SDS011;40468;42.128;24.750;2022-12-29T01:25:04;33.08;;;12.48;;
32874;SDS011;40468;42.128;24.750;2022-12-29T01:26:37;23.55;;;11.43;;
32874;SDS011;40468;42.128;24.750;2022-12-29T01:28:09;23.73;;;11.85;;
32874;SDS011;40468;42.128;24.750;2022-12-29T01:29:41;27.98;;;11.80;;
32874;SDS011;40468;42.128;24.750;2022-12-29T01:31:12;23.67;;;11.48;;
32874;SDS011;40468;42.128;24.750;2022-12-29T01:32:45;23.08;;;11.50;;
32874;SDS011;40468;42.128;24.750;2022-12-29T01:34:17;27.63;;;12.55;;
32874;SDS011;40468;42.128;24.750;2022-12-29T01:35:48;22.77;;;12.70;;
32874;SDS011;40468;42.128;24.750;2022-12-29T01:37:21;21.40;;;11.65;;
32874;SDS011;40468;42.128;24.750;2022-12-29T01:38:53;24.30;;;11.75;;
32874;SDS011;40468;42.128;24.750;2022-12-29T01:40:24;24.80;;;12.25;;
32874;SDS011;40468;42.128;24.750;2022-12-29T01:41:56;24.60;;;12.02;;
32874;SDS011;40468;42.128;24.750;2022-12-29T01:43:37;21.95;;;11.50;;
32874;SDS011;40468;42.128;24.750;2022-12-29T01:45:12;24.92;;;11.70;;
32874;SDS011;40468;42.128;24.750;2022-12-29T01:46:45;26.05;;;11.23;;
32874;SDS011;40468;42.128;24.750;2022-12-29T01:48:19;25.65;;;10.85;;
32874;SDS011;40468;42.128;24.750;2022-12-29T01:49:51;33.60;;;11.88;;
32874;SDS011;40468;42.128;24.750;2022-12-29T01:51:25;22.77;;;11.85;;
32874;SDS011;40468;42.128;24.750;2022-12-29T01:53:01;27.23;;;11.88;;
32874;SDS011;40468;42.128;24.750;2022-12-29T01:54:38;24.23;;;11.45;;
32874;SDS011;40468;42.128;24.750;2022-12-29T01:56:14;21.90;;;10.70;;
32874;SDS011;40468;42.128;24.750;2022-12-29T01:57:51;25.13;;;11.35;;
32874;SDS011;40468;42.128;24.750;2022-12-29T01:59:27;20.83;;;11.10;;
32874;SDS011;40468;42.128;24.750;2022-12-29T02:01:02;22.88;;;11.80;;
32874;SDS011;40468;42.128;24.750;2022-12-29T02:02:35;27.55;;;11.65;;
32874;SDS011;40468;42.128;24.750;2022-12-29T02:04:06;21.85;;;10.90;;
32874;SDS011;40468;42.128;24.750;2022-12-29T02:05:43;24.67;;;11.18;;
32874;SDS011;40468;42.128;24.750;2022-12-29T02:07:20;25.08;;;11.48;;
32874;SDS011;40468;42.128;24.750;2022-12-29T02:08:55;22.35;;;11.40;;
32874;SDS011;40468;42.128;24.750;2022-12-29T02:10:29;22.45;;;10.65;;
32874;SDS011;40468;42.128;24.750;2022-12-29T02:12:04;24.13;;;11.73;;
32874;SDS011;40468;42.128;24.750;2022-12-29T02:13:36;22.63;;;11.88;;
32874;SDS011;40468;42.128;24.750;2022-12-29T02:15:08;24.80;;;11.93;;
32874;SDS011;40468;42.128;24.750;2022-12-29T02:16:44;28.98;;;12.57;;
32874;SDS011;40468;42.128;24.750;2022-12-29T02:18:30;25.33;;;13.18;;
32874;SDS011;40468;42.128;24.750;2022-12-29T02:20:21;26.77;;;13.43;;
32874;SDS011;40468;42.128;24.750;2022-12-29T02:22:31;22.98;;;12.25;;
32874;SDS011;40468;42.128;24.750;2022-12-29T02:26:32;28.20;;;12.27;;
32874;SDS011;40468;42.128;24.750;2022-12-29T02:28:37;26.75;;;12.90;;
32874;SDS011;40468;42.128;24.750;2022-12-29T02:30:31;26.02;;;13.02;;
32874;SDS011;40468;42.128;24.750;2022-12-29T02:32:24;29.05;;;13.48;;
32874;SDS011;40468;42.128;24.750;2022-12-29T02:34:04;34.88;;;14.73;;
32874;SDS011;40468;42.128;24.750;2022-12-29T02:35:44;28.23;;;14.48;;
32874;SDS011;40468;42.128;24.750;2022-12-29T02:37:22;26.17;;;13.55;;
32874;SDS011;40468;42.128;24.750;2022-12-29T02:38:59;25.70;;;12.73;;
32874;SDS011;40468;42.128;24.750;2022-12-29T02:40:39;29.67;;;14.52;;
32874;SDS011;40468;42.128;24.750;2022-12-29T02:42:17;29.10;;;14.13;;
32874;SDS011;40468;42.128;24.750;2022-12-29T02:43:56;23.08;;;13.07;;
32874;SDS011;40468;42.128;24.750;2022-12-29T02:45:38;26.77;;;12.52;;
32874;SDS011;40468;42.128;24.750;2022-12-29T02:47:15;29.83;;;13.43;;
32874;SDS011;40468;42.128;24.750;2022-12-29T02:48:54;31.02;;;15.02;;
32874;SDS011;40468;42.128;24.750;2022-12-29T02:50:32;28.40;;;14.88;;
32874;SDS011;40468;42.128;24.750;2022-12-29T02:52:09;23.20;;;12.98;;
32874;SDS011;40468;42.128;24.750;2022-12-29T02:53:46;26.23;;;12.57;;
32874;SDS011;40468;42.128;24.750;2022-12-29T02:55:35;31.63;;;14.07;;
32874;SDS011;40468;42.128;24.750;2022-12-29T02:57:11;25.27;;;13.05;;
32874;SDS011;40468;42.128;24.750;2022-12-29T02:58:45;29.15;;;12.82;;
32874;SDS011;40468;42.128;24.750;2022-12-29T03:00:17;25.40;;;13.05;;
32874;SDS011;40468;42.128;24.750;2022-12-29T03:01:55;26.65;;;12.85;;
32874;SDS011;40468;42.128;24.750;2022-12-29T03:03:48;23.48;;;11.55;;
32874;SDS011;40468;42.128;24.750;2022-12-29T03:05:41;22.88;;;11.10;;
32874;SDS011;40468;42.128;24.750;2022-12-29T03:07:28;26.45;;;12.10;;
32874;SDS011;40468;42.128;24.750;2022-12-29T03:09:06;27.85;;;12.45;;
32874;SDS011;40468;42.128;24.750;2022-12-29T03:10:47;28.67;;;12.10;;
32874;SDS011;40468;42.128;24.750;2022-12-29T03:12:24;28.80;;;13.60;;
32874;SDS011;40468;42.128;24.750;2022-12-29T03:14:29;31.13;;;11.95;;
32874;SDS011;40468;42.128;24.750;2022-12-29T03:16:24;30.45;;;13.05;;
32874;SDS011;40468;42.128;24.750;2022-12-29T03:18:12;25.85;;;12.65;;
32874;SDS011;40468;42.128;24.750;2022-12-29T03:19:50;27.05;;;12.52;;
32874;SDS011;40468;42.128;24.750;2022-12-29T03:21:30;26.23;;;13.70;;
32874;SDS011;40468;42.128;24.750;2022-12-29T03:23:22;27.08;;;12.68;;
32874;SDS011;40468;42.128;24.750;2022-12-29T03:24:57;30.95;;;13.77;;
32874;SDS011;40468;42.128;24.750;2022-12-29T03:26:34;32.45;;;15.32;;
32874;SDS011;40468;42.128;24.750;2022-12-29T03:28:08;26.05;;;14.20;;
32874;SDS011;40468;42.128;24.750;2022-12-29T03:29:44;30.33;;;15.35;;
32874;SDS011;40468;42.128;24.750;2022-12-29T03:31:22;30.35;;;15.43;;
32874;SDS011;40468;42.128;24.750;2022-12-29T03:32:57;30.27;;;15.27;;
32874;SDS011;40468;42.128;24.750;2022-12-29T03:34:45;31.88;;;15.98;;
32874;SDS011;40468;42.128;24.750;2022-12-29T03:36:20;30.70;;;15.10;;
32874;SDS011;40468;42.128;24.750;2022-12-29T03:38:00;39.05;;;16.80;;
32874;SDS011;40468;42.128;24.750;2022-12-29T03:39:41;34.63;;;16.25;;
32874;SDS011;40468;42.128;24.750;2022-12-29T03:41:13;30.63;;;15.95;;
32874;SDS011;40468;42.128;24.750;2022-12-29T03:42:48;30.85;;;15.55;;
32874;SDS011;40468;42.128;24.750;2022-12-29T03:44:20;38.22;;;15.90;;
32874;SDS011;40468;42.128;24.750;2022-12-29T03:45:52;33.13;;;17.00;;
32874;SDS011;40468;42.128;24.750;2022-12-29T03:47:24;30.08;;;14.85;;
32874;SDS011;40468;42.128;24.750;2022-12-29T03:48:56;32.03;;;16.05;;
32874;SDS011;40468;42.128;24.750;2022-12-29T03:50:29;33.95;;;15.27;;
32874;SDS011;40468;42.128;24.750;2022-12-29T03:52:01;32.70;;;15.25;;
32874;SDS011;40468;42.128;24.750;2022-12-29T03:53:32;34.33;;;15.43;;
32874;SDS011;40468;42.128;24.750;2022-12-29T03:55:04;27.83;;;15.68;;
32874;SDS011;40468;42.128;24.750;2022-12-29T03:56:37;34.13;;;15.52;;
32874;SDS011;40468;42.128;24.750;2022-12-29T03:58:09;31.45;;;14.80;;
32874;SDS011;40468;42.128;24.750;2022-12-29T03:59:40;33.00;;;15.48;;
32874;SDS011;40468;42.128;24.750;2022-12-29T04:01:11;28.75;;;15.60;;
32874;SDS011;40468;42.128;24.750;2022-12-29T04:02:43;29.92;;;15.75;;
32874;SDS011;40468;42.128;24.750;2022-12-29T04:04:15;33.45;;;15.82;;
32874;SDS011;40468;42.128;24.750;2022-12-29T04:05:48;31.95;;;16.02;;
32874;SDS011;40468;42.128;24.750;2022-12-29T04:07:20;30.27;;;15.73;;
32874;SDS011;40468;42.128;24.750;2022-12-29T04:08:52;37.13;;;16.00;;
32874;SDS011;40468;42.128;24.750;2022-12-29T04:10:24;34.10;;;16.48;;
32874;SDS011;40468;42.128;24.750;2022-12-29T04:11:56;36.90;;;16.02;;
32874;SDS011;40468;42.128;24.750;2022-12-29T04:13:27;38.75;;;16.95;;
32874;SDS011;40468;42.128;24.750;2022-12-29T04:14:59;37.88;;;16.95;;
32874;SDS011;40468;42.128;24.750;2022-12-29T04:16:31;32.35;;;16.95;;
32874;SDS011;40468;42.128;24.750;2022-12-29T04:18:05;41.00;;;17.80;;
32874;SDS011;40468;42.128;24.750;2022-12-29T04:19:37;37.47;;;17.45;;
32874;SDS011;40468;42.128;24.750;2022-12-29T04:21:11;39.15;;;18.23;;
32874;SDS011;40468;42.128;24.750;2022-12-29T04:22:41;37.50;;;17.30;;
32874;SDS011;40468;42.128;24.750;2022-12-29T04:24:13;31.90;;;15.95;;
32874;SDS011;40468;42.128;24.750;2022-12-29T04:25:45;34.53;;;17.50;;
32874;SDS011;40468;42.128;24.750;2022-12-29T04:27:17;36.47;;;18.13;;
32874;SDS011;40468;42.128;24.750;2022-12-29T04:28:49;36.88;;;17.98;;
32874;SDS011;40468;42.128;24.750;2022-12-29T04:30:20;34.53;;;17.30;;
32874;SDS011;40468;42.128;24.750;2022-12-29T04:31:51;39.95;;;19.77;;
32874;SDS011;40468;42.128;24.750;2022-12-29T04:33:23;34.80;;;18.67;;
32874;SDS011;40468;42.128;24.750;2022-12-29T04:34:54;40.17;;;19.80;;
32874;SDS011;40468;42.128;24.750;2022-12-29T04:36:27;40.63;;;18.38;;
32874;SDS011;40468;42.128;24.750;2022-12-29T04:37:59;41.10;;;18.23;;
32874;SDS011;40468;42.128;24.750;2022-12-29T04:39:31;40.50;;;17.92;;
32874;SDS011;40468;42.128;24.750;2022-12-29T04:41:04;37.70;;;18.70;;
32874;SDS011;40468;42.128;24.750;2022-12-29T04:42:36;40.00;;;18.60;;
32874;SDS011;40468;42.128;24.750;2022-12-29T04:44:07;40.47;;;19.45;;
32874;SDS011;40468;42.128;24.750;2022-12-29T04:45:39;37.78;;;19.25;;
32874;SDS011;40468;42.128;24.750;2022-12-29T04:47:14;37.40;;;20.67;;
32874;SDS011;40468;42.128;24.750;2022-12-29T04:48:46;42.00;;;20.02;;
32874;SDS011;40468;42.128;24.750;2022-12-29T04:50:18;41.63;;;19.75;;
32874;SDS011;40468;42.128;24.750;2022-12-29T04:51:50;40.33;;;20.05;;
32874;SDS011;40468;42.128;24.750;2022-12-29T04:53:22;41.85;;;20.30;;
32874;SDS011;40468;42.128;24.750;2022-12-29T04:54:53;42.75;;;20.98;;
32874;SDS011;40468;42.128;24.750;2022-12-29T04:56:24;52.17;;;21.25;;
32874;SDS011;40468;42.128;24.750;2022-12-29T04:57:56;44.03;;;20.98;;
32874;SDS011;40468;42.128;24.750;2022-12-29T04:59:28;44.60;;;20.55;;
32874;SDS011;40468;42.128;24.750;2022-12-29T05:01:00;39.47;;;20.67;;
32874;SDS011;40468;42.128;24.750;2022-12-29T05:02:31;39.05;;;19.73;;
32874;SDS011;40468;42.128;24.750;2022-12-29T05:04:03;39.40;;;19.88;;
32874;SDS011;40468;42.128;24.750;2022-12-29T05:05:35;44.33;;;20.33;;
32874;SDS011;40468;42.128;24.750;2022-12-29T05:07:07;38.72;;;21.95;;
32874;SDS011;40468;42.128;24.750;2022-12-29T05:08:39;42.72;;;21.35;;
32874;SDS011;40468;42.128;24.750;2022-12-29T05:10:11;43.80;;;20.80;;
32874;SDS011;40468;42.128;24.750;2022-12-29T05:11:43;41.72;;;21.60;;
32874;SDS011;40468;42.128;24.750;2022-12-29T05:13:14;44.63;;;23.52;;
32874;SDS011;40468;42.128;24.750;2022-12-29T05:14:46;52.70;;;23.27;;
32874;SDS011;40468;42.128;24.750;2022-12-29T05:16:17;45.20;;;22.52;;
32874;SDS011;40468;42.128;24.750;2022-12-29T05:17:49;45.65;;;23.20;;
32874;SDS011;40468;42.128;24.750;2022-12-29T05:19:21;50.28;;;23.02;;
32874;SDS011;40468;42.128;24.750;2022-12-29T05:20:53;44.92;;;22.17;;
32874;SDS011;40468;42.128;24.750;2022-12-29T05:22:26;49.28;;;22.42;;
32874;SDS011;40468;42.128;24.750;2022-12-29T05:23:57;39.17;;;21.65;;
32874;SDS011;40468;42.128;24.750;2022-12-29T05:25:29;41.03;;;20.60;;
32874;SDS011;40468;42.128;24.750;2022-12-29T05:27:01;43.53;;;21.48;;
32874;SDS011;40468;42.128;24.750;2022-12-29T05:28:32;46.72;;;21.95;;
32874;SDS011;40468;42.128;24.750;2022-12-29T05:30:05;45.83;;;21.73;;
32874;SDS011;40468;42.128;24.750;2022-12-29T05:31:37;45.35;;;21.80;;
32874;SDS011;40468;42.128;24.750;2022-12-29T05:33:09;40.20;;;20.13;;
32874;SDS011;40468;42.128;24.750;2022-12-29T05:34:42;59.47;;;23.40;;
32874;SDS011;40468;42.128;24.750;2022-12-29T05:36:14;51.75;;;23.13;;
32874;SDS011;40468;42.128;24.750;2022-12-29T05:37:46;47.17;;;23.23;;
32874;SDS011;40468;42.128;24.750;2022-12-29T05:39:18;51.90;;;22.83;;
32874;SDS011;40468;42.128;24.750;2022-12-29T05:40:50;54.45;;;23.00;;
32874;SDS011;40468;42.128;24.750;2022-12-29T05:42:22;52.13;;;25.15;;
32874;SDS011;40468;42.128;24.750;2022-12-29T05:43:53;53.75;;;23.80;;
32874;SDS011;40468;42.128;24.750;2022-12-29T05:45:25;50.70;;;22.73;;
32874;SDS011;40468;42.128;24.750;2022-12-29T05:46:57;54.08;;;23.95;;
32874;SDS011;40468;42.128;24.750;2022-12-29T05:48:29;54.60;;;24.00;;
32874;SDS011;40468;42.128;24.750;2022-12-29T05:50:01;53.83;;;23.30;;
32874;SDS011;40468;42.128;24.750;2022-12-29T05:51:35;52.10;;;23.25;;
32874;SDS011;40468;42.128;24.750;2022-12-29T05:53:08;45.22;;;23.42;;
32874;SDS011;40468;42.128;24.750;2022-12-29T05:54:40;43.90;;;21.95;;
32874;SDS011;40468;42.128;24.750;2022-12-29T05:56:11;48.38;;;21.45;;
32874;SDS011;40468;42.128;24.750;2022-12-29T05:57:43;54.55;;;21.55;;
32874;SDS011;40468;42.128;24.750;2022-12-29T05:59:14;47.75;;;22.17;;
32874;SDS011;40468;42.128;24.750;2022-12-29T06:00:45;59.25;;;21.25;;
32874;SDS011;40468;42.128;24.750;2022-12-29T06:02:17;51.90;;;23.85;;
32874;SDS011;40468;42.128;24.750;2022-12-29T06:03:49;52.10;;;22.65;;
32874;SDS011;40468;42.128;24.750;2022-12-29T06:05:21;51.40;;;22.45;;
32874;SDS011;40468;42.128;24.750;2022-12-29T06:06:53;46.53;;;22.10;;
32874;SDS011;40468;42.128;24.750;2022-12-29T06:08:26;52.03;;;21.55;;
32874;SDS011;40468;42.128;24.750;2022-12-29T06:09:58;46.53;;;21.77;;
32874;SDS011;40468;42.128;24.750;2022-12-29T06:11:30;52.05;;;21.70;;
32874;SDS011;40468;42.128;24.750;2022-12-29T06:13:01;45.53;;;21.65;;
32874;SDS011;40468;42.128;24.750;2022-12-29T06:14:33;47.95;;;21.50;;
32874;SDS011;40468;42.128;24.750;2022-12-29T06:16:06;47.35;;;21.65;;
32874;SDS011;40468;42.128;24.750;2022-12-29T06:17:38;46.58;;;21.67;;
32874;SDS011;40468;42.128;24.750;2022-12-29T06:19:10;47.22;;;22.13;;
32874;SDS011;40468;42.128;24.750;2022-12-29T06:20:42;46.20;;;21.73;;
32874;SDS011;40468;42.128;24.750;2022-12-29T06:22:14;58.78;;;22.75;;
32874;SDS011;40468;42.128;24.750;2022-12-29T06:23:47;57.80;;;23.15;;
32874;SDS011;40468;42.128;24.750;2022-12-29T06:25:19;52.90;;;21.85;;
32874;SDS011;40468;42.128;24.750;2022-12-29T06:26:51;52.13;;;22.67;;
32874;SDS011;40468;42.128;24.750;2022-12-29T06:28:23;47.50;;;21.70;;
32874;SDS011;40468;42.128;24.750;2022-12-29T06:29:55;52.15;;;22.38;;
32874;SDS011;40468;42.128;24.750;2022-12-29T06:31:27;48.20;;;21.65;;
32874;SDS011;40468;42.128;24.750;2022-12-29T06:32:58;50.60;;;21.98;;
32874;SDS011;40468;42.128;24.750;2022-12-29T06:34:30;45.70;;;20.98;;
32874;SDS011;40468;42.128;24.750;2022-12-29T06:36:01;58.97;;;22.65;;
32874;SDS011;40468;42.128;24.750;2022-12-29T06:37:34;57.95;;;24.20;;
32874;SDS011;40468;42.128;24.750;2022-12-29T06:39:07;60.95;;;23.88;;
32874;SDS011;40468;42.128;24.750;2022-12-29T06:40:39;64.85;;;22.50;;
32874;SDS011;40468;42.128;24.750;2022-12-29T06:42:13;50.15;;;22.58;;
32874;SDS011;40468;42.128;24.750;2022-12-29T06:43:44;81.10;;;32.47;;
32874;SDS011;40468;42.128;24.750;2022-12-29T06:45:15;70.95;;;28.10;;
32874;SDS011;40468;42.128;24.750;2022-12-29T06:46:46;59.70;;;25.70;;
32874;SDS011;40468;42.128;24.750;2022-12-29T06:48:18;57.10;;;24.40;;
32874;SDS011;40468;42.128;24.750;2022-12-29T06:49:50;64.30;;;23.40;;
32874;SDS011;40468;42.128;24.750;2022-12-29T06:51:22;55.88;;;24.75;;
32874;SDS011;40468;42.128;24.750;2022-12-29T06:52:54;58.95;;;23.55;;
32874;SDS011;40468;42.128;24.750;2022-12-29T06:54:27;60.65;;;22.75;;
32874;SDS011;40468;42.128;24.750;2022-12-29T06:55:59;58.80;;;27.67;;
32874;SDS011;40468;42.128;24.750;2022-12-29T06:57:31;56.28;;;25.75;;
32874;SDS011;40468;42.128;24.750;2022-12-29T06:59:02;78.20;;;28.35;;
32874;SDS011;40468;42.128;24.750;2022-12-29T07:00:35;73.15;;;30.75;;
32874;SDS011;40468;42.128;24.750;2022-12-29T07:02:08;71.03;;;30.80;;
32874;SDS011;40468;42.128;24.750;2022-12-29T07:03:41;73.55;;;32.42;;
32874;SDS011;40468;42.128;24.750;2022-12-29T07:05:13;85.55;;;35.03;;
32874;SDS011;40468;42.128;24.750;2022-12-29T07:06:45;68.50;;;33.60;;
32874;SDS011;40468;42.128;24.750;2022-12-29T07:08:17;67.30;;;30.27;;
32874;SDS011;40468;42.128;24.750;2022-12-29T07:09:49;67.03;;;30.30;;
32874;SDS011;40468;42.128;24.750;2022-12-29T07:11:21;59.25;;;28.98;;
32874;SDS011;40468;42.128;24.750;2022-12-29T07:12:53;61.53;;;27.20;;
32874;SDS011;40468;42.128;24.750;2022-12-29T07:14:25;59.97;;;28.73;;
32874;SDS011;40468;42.128;24.750;2022-12-29T07:15:57;56.08;;;26.80;;
32874;SDS011;40468;42.128;24.750;2022-12-29T07:17:29;60.83;;;28.35;;
32874;SDS011;40468;42.128;24.750;2022-12-29T07:19:00;56.72;;;26.85;;
32874;SDS011;40468;42.128;24.750;2022-12-29T07:20:32;56.75;;;26.00;;
32874;SDS011;40468;42.128;24.750;2022-12-29T07:22:04;63.92;;;26.20;;
32874;SDS011;40468;42.128;24.750;2022-12-29T07:23:36;56.92;;;25.80;;
32874;SDS011;40468;42.128;24.750;2022-12-29T07:25:09;46.08;;;22.92;;
32874;SDS011;40468;42.128;24.750;2022-12-29T07:26:41;39.90;;;22.40;;
32874;SDS011;40468;42.128;24.750;2022-12-29T07:28:13;44.67;;;22.23;;
32874;SDS011;40468;42.128;24.750;2022-12-29T07:29:45;46.17;;;22.17;;
32874;SDS011;40468;42.128;24.750;2022-12-29T07:31:17;42.15;;;21.98;;
32874;SDS011;40468;42.128;24.750;2022-12-29T07:32:51;52.10;;;25.13;;
32874;SDS011;40468;42.128;24.750;2022-12-29T07:34:22;51.22;;;23.95;;
32874;SDS011;40468;42.128;24.750;2022-12-29T07:35:54;50.03;;;22.95;;
32874;SDS011;40468;42.128;24.750;2022-12-29T07:37:26;46.60;;;23.20;;
32874;SDS011;40468;42.128;24.750;2022-12-29T07:38:58;45.50;;;23.58;;
32874;SDS011;40468;42.128;24.750;2022-12-29T07:40:31;46.65;;;21.75;;
32874;SDS011;40468;42.128;24.750;2022-12-29T07:42:03;47.90;;;22.52;;
32874;SDS011;40468;42.128;24.750;2022-12-29T07:43:35;48.35;;;22.65;;
32874;SDS011;40468;42.128;24.750;2022-12-29T07:45:08;45.90;;;22.58;;
32874;SDS011;40468;42.128;24.750;2022-12-29T07:46:40;44.20;;;21.80;;
32874;SDS011;40468;42.128;24.750;2022-12-29T07:48:12;41.00;;;21.05;;
32874;SDS011;40468;42.128;24.750;2022-12-29T07:49:44;44.45;;;22.35;;
32874;SDS011;40468;42.128;24.750;2022-12-29T07:51:15;39.83;;;21.80;;
32874;SDS011;40468;42.128;24.750;2022-12-29T07:52:47;42.13;;;20.80;;
32874;SDS011;40468;42.128;24.750;2022-12-29T07:54:19;41.22;;;22.08;;
32874;SDS011;40468;42.128;24.750;2022-12-29T07:55:54;49.55;;;22.10;;
32874;SDS011;40468;42.128;24.750;2022-12-29T07:57:25;43.17;;;20.10;;
32874;SDS011;40468;42.128;24.750;2022-12-29T07:58:57;45.95;;;20.92;;
32874;SDS011;40468;42.128;24.750;2022-12-29T08:00:29;44.50;;;22.70;;
32874;SDS011;40468;42.128;24.750;2022-12-29T08:02:01;41.85;;;21.20;;
32874;SDS011;40468;42.128;24.750;2022-12-29T08:03:33;52.25;;;22.92;;
32874;SDS011;40468;42.128;24.750;2022-12-29T08:05:06;44.67;;;21.63;;
32874;SDS011;40468;42.128;24.750;2022-12-29T08:06:38;40.00;;;20.92;;
32874;SDS011;40468;42.128;24.750;2022-12-29T08:08:10;43.35;;;20.50;;
32874;SDS011;40468;42.128;24.750;2022-12-29T08:09:42;33.08;;;17.55;;
32874;SDS011;40468;42.128;24.750;2022-12-29T08:11:15;38.30;;;18.58;;
32874;SDS011;40468;42.128;24.750;2022-12-29T08:12:47;36.97;;;19.05;;
32874;SDS011;40468;42.128;24.750;2022-12-29T08:14:19;37.63;;;18.10;;
32874;SDS011;40468;42.128;24.750;2022-12-29T08:15:51;53.33;;;22.42;;
32874;SDS011;40468;42.128;24.750;2022-12-29T08:17:22;37.25;;;18.65;;
32874;SDS011;40468;42.128;24.750;2022-12-29T08:18:54;43.05;;;19.23;;
32874;SDS011;40468;42.128;24.750;2022-12-29T08:20:26;36.33;;;16.70;;
32874;SDS011;40468;42.128;24.750;2022-12-29T08:21:58;37.97;;;17.38;;
32874;SDS011;40468;42.128;24.750;2022-12-29T08:23:30;30.13;;;16.17;;
32874;SDS011;40468;42.128;24.750;2022-12-29T08:25:02;36.88;;;17.33;;
32874;SDS011;40468;42.128;24.750;2022-12-29T08:26:36;29.55;;;16.52;;
32874;SDS011;40468;42.128;24.750;2022-12-29T08:28:08;38.40;;;16.58;;
32874;SDS011;40468;42.128;24.750;2022-12-29T08:29:40;32.33;;;16.58;;
32874;SDS011;40468;42.128;24.750;2022-12-29T08:31:11;31.27;;;16.45;;
32874;SDS011;40468;42.128;24.750;2022-12-29T08:32:43;38.17;;;17.00;;
32874;SDS011;40468;42.128;24.750;2022-12-29T08:34:15;33.50;;;16.65;;
32874;SDS011;40468;42.128;24.750;2022-12-29T08:35:47;32.38;;;15.98;;
32874;SDS011;40468;42.128;24.750;2022-12-29T08:37:19;34.42;;;17.55;;
32874;SDS011;40468;42.128;24.750;2022-12-29T08:38:52;29.38;;;15.55;;
32874;SDS011;40468;42.128;24.750;2022-12-29T08:40:23;30.67;;;15.65;;
32874;SDS011;40468;42.128;24.750;2022-12-29T08:41:57;31.10;;;16.40;;
32874;SDS011;40468;42.128;24.750;2022-12-29T08:43:29;23.63;;;14.55;;
32874;SDS011;40468;42.128;24.750;2022-12-29T08:45:01;23.25;;;14.40;;
32874;SDS011;40468;42.128;24.750;2022-12-29T08:46:33;28.02;;;14.57;;
32874;SDS011;40468;42.128;24.750;2022-12-29T08:48:05;35.90;;;15.60;;
32874;SDS011;40468;42.128;24.750;2022-12-29T08:49:37;28.40;;;15.10;;
32874;SDS011;40468;42.128;24.750;2022-12-29T08:51:09;27.33;;;15.85;;
32874;SDS011;40468;42.128;24.750;2022-12-29T08:52:41;25.05;;;14.75;;
32874;SDS011;40468;42.128;24.750;2022-12-29T08:54:13;28.30;;;15.30;;
32874;SDS011;40468;42.128;24.750;2022-12-29T08:55:45;24.88;;;14.05;;
32874;SDS011;40468;42.128;24.750;2022-12-29T08:57:18;24.55;;;14.82;;
32874;SDS011;40468;42.128;24.750;2022-12-29T08:58:50;27.92;;;16.25;;
32874;SDS011;40468;42.128;24.750;2022-12-29T09:00:23;32.08;;;16.40;;
32874;SDS011;40468;42.128;24.750;2022-12-29T09:01:55;34.60;;;16.20;;
32874;SDS011;40468;42.128;24.750;2022-12-29T09:03:27;27.65;;;15.25;;
32874;SDS011;40468;42.128;24.750;2022-12-29T09:04:59;29.00;;;15.35;;
32874;SDS011;40468;42.128;24.750;2022-12-29T09:06:31;28.52;;;14.68;;